Time;durP1;ratioP1;P1;durP2;ratioP2;P2;SDS_P1;SDS_P2;PMS_P1;PMS_P2;Temp;Humidity;BMP_temperature;BMP_pressure;BME280_temperature;BME280_humidity;BME280_pressure;Samples;Min_cycle;Max_cycle;Signal;HPM_P1;HPM_P2
2022/01/30 00:01:01;;;;;;;0.60;0.60;;;3.30;99.90;;;;;;4997957;28;20217;-84
2022/01/30 00:03:27;;;;;;;0.60;0.60;;;3.20;99.90;;;;;;5008216;28;20191;-85
2022/01/30 00:05:53;;;;;;;0.60;0.60;;;3.20;99.90;;;;;;4988963;28;20203;-85
2022/01/30 00:08:34;;;;;;;0.70;0.70;;;3.20;99.90;;;;;;4999458;28;20206;-84
2022/01/30 00:15:27;;;;;;;;;;;;;;;;;;;;;
2022/01/30 00:22:11;;;;;;;;;;;;;;;;;;;;;
2022/01/30 00:32:14;;;;;;;0.77;0.77;;;3.20;99.90;;;;;;4837763;29;20842;-84
2022/01/30 00:38:54;;;;;;;0.60;0.60;;;3.20;99.90;;;;;;4837263;29;20263;-85
2022/01/30 00:46:06;;;;;;;0.70;0.70;;;3.10;99.90;;;;;;4821319;29;20233;-83
2022/01/30 00:49:41;;;;;;;0.70;0.70;;;2.90;99.90;;;;;;4829503;29;20637;-84
2022/01/30 01:28:17;;;;;;;;;;;;;;;;;;;;;
2022/01/30 01:31:13;;;;;;;0.70;0.70;;;0.60;99.90;;;;;;4851035;29;20215;-84
2022/01/30 01:44:56;;;;;;;0.60;0.60;;;0.50;99.90;;;;;;4944520;28;20278;-84
2022/01/30 01:47:59;;;;;;;0.60;0.60;;;0.60;99.90;;;;;;5017181;28;20238;-84
2022/01/30 01:54:16;;;;;;;0.70;0.70;;;0.50;99.90;;;;;;5009213;28;20603;-84
2022/01/30 02:00:12;;;;;;;0.70;0.70;;;0.50;99.90;;;;;;5014572;28;20229;-84
2022/01/30 02:06:59;;;;;;;;;;;;;;;;;;;;;
2022/01/30 02:26:16;;;;;;;0.60;0.60;;;0.80;99.90;;;;;;5018706;28;20221;-81
2022/01/30 02:36:36;;;;;;;0.75;0.75;;;1.00;99.90;;;;;;4989927;28;20215;-81
2022/01/30 02:43:41;;;;;;;;;;;;;;;;;;;;;
2022/01/30 02:47:20;;;;;;;;;;;;;;;;;;;;;
2022/01/30 02:54:03;;;;;;;0.65;0.65;;;1.60;99.90;;;;;;4846739;29;20241;-81
2022/01/30 03:04:16;;;;;;;;;;;;;;;;;;;;;
2022/01/30 03:07:22;;;;;;;0.60;0.60;;;2.20;99.90;;;;;;4931834;29;20325;-81
2022/01/30 03:13:10;;;;;;;0.60;0.60;;;2.50;99.90;;;;;;4932908;29;20268;-81
2022/01/30 03:16:05;;;;;;;0.50;0.50;;;2.60;99.90;;;;;;4933235;29;20300;-81
2022/01/30 03:19:13;;;;;;;0.60;0.60;;;2.70;99.90;;;;;;4912959;29;20620;-82
2022/01/30 03:23:03;;;;;;;;;;;;;;;;;;;;;
2022/01/30 04:02:33;;;;;;;;;;;;;;;;;;;;;
2022/01/30 04:06:12;;;;;;;0.60;0.60;;;3.70;99.90;;;;;;4749917;30;20260;-81
2022/01/30 05:19:48;;;;;;;0.60;0.60;;;4.40;99.90;;;;;;4715313;30;20587;-81
2022/01/30 05:53:33;;;;;;;0.60;0.60;;;4.30;99.90;;;;;;4790635;29;20657;-81
2022/01/30 06:14:58;;;;;;;;;;;;;;;;;;;;;
2022/01/30 06:32:50;;;;;;;;;;;;;;;;;;;;;
2022/01/30 06:50:56;;;;;;;;;;;;;;;;;;;;;
2022/01/30 07:01:06;;;;;;;0.70;0.70;;;4.20;99.90;;;;;;5067723;28;20550;-75
2022/01/30 07:03:32;;;;;;;0.70;0.70;;;4.20;99.90;;;;;;5065205;28;20231;-71
2022/01/30 07:05:57;;;;;;;0.70;0.70;;;4.20;99.90;;;;;;5066591;28;20208;-72
2022/01/30 07:08:23;;;;;;;0.60;0.60;;;4.10;99.90;;;;;;5065723;28;20201;-71
2022/01/30 07:10:49;;;;;;;0.70;0.70;;;4.10;99.90;;;;;;5049606;28;20235;-70
2022/01/30 07:13:14;;;;;;;0.60;0.60;;;4.10;99.90;;;;;;5064557;28;20201;-70
2022/01/30 07:15:43;;;;;;;0.50;0.50;;;4.20;99.90;;;;;;5062619;28;20209;-69
2022/01/30 07:18:09;;;;;;;0.57;0.57;;;4.10;99.90;;;;;;5051249;28;20216;-70
2022/01/30 07:20:36;;;;;;;0.65;0.65;;;4.10;99.90;;;;;;5058868;28;20219;-70
2022/01/30 07:23:02;;;;;;;0.70;0.70;;;4.10;99.90;;;;;;5064895;28;20772;-71
2022/01/30 07:25:28;;;;;;;0.50;0.50;;;4.10;99.90;;;;;;5060560;28;20209;-70
2022/01/30 07:27:54;;;;;;;0.50;0.50;;;4.20;99.90;;;;;;5062606;28;20201;-70
2022/01/30 07:30:19;;;;;;;0.60;0.60;;;4.20;99.90;;;;;;5064837;28;20698;-70
2022/01/30 07:32:45;;;;;;;0.65;0.65;;;4.30;99.90;;;;;;5061115;28;20571;-69
2022/01/30 07:35:10;;;;;;;0.40;0.40;;;4.30;99.90;;;;;;5063826;28;20205;-70
2022/01/30 07:37:36;;;;;;;0.60;0.60;;;4.20;99.90;;;;;;5059829;28;20217;-70
2022/01/30 07:40:04;;;;;;;0.60;0.60;;;4.30;99.90;;;;;;5053297;28;20215;-71
2022/01/30 07:42:29;;;;;;;0.60;0.60;;;4.40;99.90;;;;;;5063254;28;20725;-70
2022/01/30 07:44:55;;;;;;;0.52;0.52;;;4.50;99.90;;;;;;5050159;28;20287;-69
2022/01/30 07:47:22;;;;;;;0.70;0.70;;;4.50;99.90;;;;;;5061078;28;20201;-71
2022/01/30 07:49:51;;;;;;;0.68;0.68;;;4.50;99.90;;;;;;5063489;28;20725;-70
2022/01/30 07:52:21;;;;;;;0.60;0.60;;;4.50;99.90;;;;;;5064533;28;20657;-72
2022/01/30 07:54:47;;;;;;;0.50;0.50;;;4.50;99.90;;;;;;5063788;28;20205;-70
2022/01/30 07:57:14;;;;;;;0.60;0.60;;;4.60;99.90;;;;;;5064846;28;20578;-71
2022/01/30 07:59:40;;;;;;;0.70;0.70;;;4.70;99.90;;;;;;5065345;28;20661;-71
2022/01/30 08:02:06;;;;;;;0.60;0.60;;;4.70;99.90;;;;;;5062836;28;20209;-73
2022/01/30 08:04:32;;;;;;;0.50;0.50;;;4.60;99.90;;;;;;5062192;28;20311;-70
2022/01/30 08:06:59;;;;;;;0.60;0.60;;;4.60;99.90;;;;;;5059827;28;20258;-71
2022/01/30 08:09:27;;;;;;;0.50;0.50;;;4.60;99.90;;;;;;5058779;28;20208;-69
2022/01/30 08:11:53;;;;;;;0.60;0.60;;;4.50;99.90;;;;;;5050870;28;20205;-71
2022/01/30 08:14:20;;;;;;;0.60;0.60;;;4.60;99.90;;;;;;5049718;28;20205;-72
2022/01/30 08:16:45;;;;;;;0.70;0.70;;;4.50;99.90;;;;;;5050788;28;20255;-72
2022/01/30 08:19:11;;;;;;;0.52;0.52;;;4.50;99.90;;;;;;5047092;28;20260;-72
2022/01/30 08:21:37;;;;;;;0.60;0.60;;;4.60;99.90;;;;;;5047234;28;20190;-72
2022/01/30 08:24:03;;;;;;;0.73;0.73;;;4.60;99.90;;;;;;5047236;28;20471;-73
2022/01/30 08:26:28;;;;;;;0.70;0.70;;;4.50;99.90;;;;;;5049120;28;20194;-72
2022/01/30 08:28:54;;;;;;;0.70;0.70;;;4.50;99.90;;;;;;5048725;28;20205;-72
2022/01/30 08:31:19;;;;;;;0.70;0.70;;;4.50;99.90;;;;;;5046978;28;20194;-72
2022/01/30 08:33:45;;;;;;;0.68;0.68;;;4.50;99.90;;;;;;5046888;28;20296;-72
2022/01/30 08:36:11;;;;;;;0.60;0.60;;;4.40;99.90;;;;;;5049407;28;20190;-73
2022/01/30 08:38:36;;;;;;;0.63;0.63;;;4.40;99.90;;;;;;5047729;28;20235;-72
2022/01/30 08:41:02;;;;;;;0.50;0.50;;;4.40;99.90;;;;;;5034032;28;20194;-72
2022/01/30 08:43:30;;;;;;;0.50;0.50;;;4.40;99.90;;;;;;5051459;28;20307;-70
2022/01/30 08:45:56;;;;;;;0.50;0.50;;;4.50;99.90;;;;;;5051527;28;20275;-72
2022/01/30 08:48:22;;;;;;;0.60;0.60;;;4.40;99.90;;;;;;5051495;28;20232;-70
2022/01/30 08:50:48;;;;;;;0.60;0.60;;;4.40;99.90;;;;;;5034224;28;20206;-70
2022/01/30 08:53:15;;;;;;;0.40;0.40;;;4.40;99.90;;;;;;5047382;28;20706;-70
2022/01/30 08:55:41;;;;;;;0.70;0.70;;;4.50;99.90;;;;;;5049953;28;20206;-71
2022/01/30 08:58:10;;;;;;;0.70;0.70;;;4.60;99.90;;;;;;5049976;28;20623;-70
2022/01/30 09:00:37;;;;;;;0.63;0.63;;;4.60;99.90;;;;;;5048285;28;20236;-70
2022/01/30 09:03:04;;;;;;;0.50;0.50;;;4.70;99.90;;;;;;5045463;28;20209;-70
2022/01/30 09:05:31;;;;;;;0.70;0.70;;;4.70;99.90;;;;;;5048748;28;20201;-70
2022/01/30 09:07:57;;;;;;;0.60;0.60;;;4.60;99.90;;;;;;5047474;28;20688;-70
2022/01/30 09:10:23;;;;;;;0.50;0.50;;;4.50;99.90;;;;;;5049261;28;20686;-71
2022/01/30 09:12:49;;;;;;;0.60;0.60;;;4.40;99.90;;;;;;5048832;28;20209;-70
2022/01/30 09:15:16;;;;;;;0.60;0.60;;;4.40;99.90;;;;;;5047338;28;20216;-70
2022/01/30 09:17:43;;;;;;;0.60;0.60;;;4.30;99.90;;;;;;5046538;28;20193;-74
2022/01/30 09:20:10;;;;;;;0.50;0.50;;;4.40;99.90;;;;;;5048412;28;20252;-71
2022/01/30 09:22:36;;;;;;;0.60;0.60;;;4.30;99.90;;;;;;5047226;28;20197;-71
2022/01/30 09:25:03;;;;;;;0.60;0.60;;;4.30;99.90;;;;;;5048446;28;20201;-72
2022/01/30 09:27:29;;;;;;;0.70;0.70;;;4.30;99.90;;;;;;5049265;28;20260;-71
2022/01/30 09:29:55;;;;;;;0.70;0.70;;;4.30;99.90;;;;;;5050129;28;20578;-71
2022/01/30 09:32:21;;;;;;;0.60;0.60;;;4.20;99.90;;;;;;5049240;28;20616;-71
2022/01/30 09:34:46;;;;;;;0.80;0.80;;;4.20;99.90;;;;;;5047190;28;20296;-72
2022/01/30 09:37:12;;;;;;;0.70;0.70;;;4.20;99.90;;;;;;5034989;28;20202;-72
2022/01/30 09:39:38;;;;;;;0.60;0.60;;;4.40;99.90;;;;;;5050457;28;20248;-72
2022/01/30 09:42:05;;;;;;;0.70;0.70;;;4.70;99.90;;;;;;5040775;28;20213;-71
2022/01/30 09:44:36;;;;;;;3.33;1.85;;;4.90;99.90;;;;;;5035901;28;20209;-71
2022/01/30 09:47:02;;;;;;;0.55;0.55;;;5.00;99.90;;;;;;5047555;28;20728;-71
2022/01/30 09:49:32;;;;;;;0.55;0.55;;;5.00;99.90;;;;;;5031576;28;20349;-71
2022/01/30 09:51:58;;;;;;;2.95;0.93;;;5.10;99.90;;;;;;5045000;28;20685;-71
2022/01/30 09:54:23;;;;;;;0.70;0.70;;;5.10;99.90;;;;;;5034171;28;20301;-70
2022/01/30 09:56:51;;;;;;;0.50;0.50;;;5.10;99.90;;;;;;5043758;28;20757;-72
2022/01/30 09:59:19;;;;;;;0.50;0.50;;;5.20;99.90;;;;;;5044884;28;20241;-71
2022/01/30 10:01:45;;;;;;;0.55;0.55;;;5.00;99.90;;;;;;5047492;28;20664;-73
2022/01/30 10:04:11;;;;;;;0.60;0.60;;;4.90;99.90;;;;;;5045273;28;20319;-71
2022/01/30 10:07:00;;;;;;;0.60;0.60;;;4.80;99.90;;;;;;5047525;28;20204;-71
2022/01/30 10:09:33;;;;;;;0.50;0.50;;;4.80;99.90;;;;;;5047275;28;20201;-71
2022/01/30 10:12:14;;;;;;;0.52;0.52;;;4.90;99.90;;;;;;5048576;28;20240;-71
2022/01/30 10:15:04;;;;;;;0.60;0.60;;;4.90;99.90;;;;;;5047594;28;20698;-71
2022/01/30 10:17:36;;;;;;;0.60;0.60;;;4.80;99.90;;;;;;5045922;28;20288;-72
2022/01/30 10:20:14;;;;;;;0.50;0.50;;;4.80;99.90;;;;;;5044062;28;20210;-73
2022/01/30 10:23:01;;;;;;;0.65;0.65;;;4.90;99.90;;;;;;5036815;28;20212;-73
2022/01/30 10:25:32;;;;;;;0.50;0.50;;;4.80;99.90;;;;;;5039286;28;20198;-73
2022/01/30 10:28:15;;;;;;;0.63;0.63;;;4.90;99.90;;;;;;5040448;28;20201;-71
2022/01/30 10:30:56;;;;;;;0.70;0.70;;;5.00;99.90;;;;;;5043269;28;20229;-71
2022/01/30 10:33:37;;;;;;;0.60;0.60;;;5.00;99.90;;;;;;5040794;28;20678;-72
2022/01/30 10:36:09;;;;;;;0.52;0.52;;;5.10;99.90;;;;;;5040344;28;20320;-72
2022/01/30 10:38:41;;;;;;;0.60;0.60;;;5.00;99.90;;;;;;5040770;28;20673;-71
2022/01/30 10:41:13;;;;;;;0.68;0.68;;;5.00;99.90;;;;;;5040969;28;20554;-72
2022/01/30 10:43:48;;;;;;;0.70;0.70;;;4.90;99.90;;;;;;5044181;28;20217;-71
2022/01/30 10:46:30;;;;;;;0.80;0.80;;;5.00;99.90;;;;;;5039608;28;20213;-72
2022/01/30 10:49:01;;;;;;;0.50;0.50;;;5.00;99.90;;;;;;5042555;28;20194;-73
2022/01/30 10:51:29;;;;;;;0.50;0.50;;;5.00;99.90;;;;;;5041757;28;20676;-72
2022/01/30 10:53:57;;;;;;;0.60;0.60;;;5.00;99.90;;;;;;5044525;28;20263;-74
2022/01/30 10:56:28;;;;;;;0.45;0.45;;;5.00;99.90;;;;;;5047424;28;20256;-71
2022/01/30 11:59:39;;;;;;;0.70;0.70;;;4.70;99.90;;;;;;5050920;28;20575;-70
2022/01/30 12:02:29;;;;;;;0.60;0.60;;;4.70;99.90;;;;;;5049696;28;20598;-69
2022/01/30 12:05:09;;;;;;;0.60;0.60;;;4.60;99.90;;;;;;5048511;28;20280;-70
2022/01/30 12:07:37;;;;;;;0.82;0.82;;;4.60;99.90;;;;;;5049606;28;20282;-72
2022/01/30 12:10:15;;;;;;;0.60;0.60;;;4.50;99.90;;;;;;5037872;28;20233;-71
2022/01/30 12:12:49;;;;;;;0.52;0.52;;;4.40;99.90;;;;;;5045040;28;20224;-70
2022/01/30 12:15:44;;;;;;;0.50;0.50;;;4.40;99.90;;;;;;5049718;28;20206;-71
2022/01/30 12:18:11;;;;;;;0.60;0.60;;;4.30;99.90;;;;;;5048294;28;20608;-73
2022/01/30 12:21:00;;;;;;;0.70;0.70;;;4.30;99.90;;;;;;5050441;28;20244;-73
2022/01/30 12:23:27;;;;;;;0.60;0.60;;;4.40;99.90;;;;;;5050895;28;20200;-71
2022/01/30 12:26:18;;;;;;;0.52;0.52;;;4.40;99.90;;;;;;5031166;28;20206;-71
2022/01/30 12:28:51;;;;;;;1.20;1.10;;;4.40;99.90;;;;;;5049729;28;20568;-71
2022/01/30 12:31:29;;;;;;;3.45;1.60;;;4.40;99.90;;;;;;5049999;28;20201;-72
2022/01/30 12:34:03;;;;;;;0.57;0.57;;;4.40;99.90;;;;;;5051702;28;20293;-70
2022/01/30 12:36:50;;;;;;;0.50;0.50;;;4.40;99.90;;;;;;5051980;28;20558;-69
2022/01/30 12:39:18;;;;;;;0.60;0.60;;;4.40;99.90;;;;;;5015966;28;20739;-70
2022/01/30 12:41:45;;;;;;;0.60;0.60;;;4.50;99.90;;;;;;5033020;28;20194;-69
2022/01/30 12:44:12;;;;;;;0.55;0.55;;;4.50;99.90;;;;;;5051713;28;20194;-69
2022/01/30 12:46:53;;;;;;;0.65;0.65;;;4.40;99.90;;;;;;5014799;28;20203;-72
2022/01/30 12:49:21;;;;;;;0.60;0.60;;;4.40;99.90;;;;;;5017468;28;20194;-69
2022/01/30 12:51:52;;;;;;;0.45;0.45;;;4.40;99.90;;;;;;5032558;28;20278;-70
2022/01/30 12:54:21;;;;;;;0.70;0.70;;;4.30;99.90;;;;;;5049280;28;20560;-71
2022/01/30 12:56:51;;;;;;;0.60;0.60;;;4.30;99.90;;;;;;5032573;28;20604;-71
2022/01/30 12:59:18;;;;;;;0.80;0.80;;;4.20;99.90;;;;;;5049555;28;20244;-70
2022/01/30 13:01:46;;;;;;;0.60;0.60;;;4.20;99.90;;;;;;5032673;28;20233;-70
2022/01/30 13:04:24;;;;;;;0.75;0.75;;;4.20;99.60;;;;;;5029850;28;20684;-73
2022/01/30 13:06:51;;;;;;;0.70;0.70;;;4.10;99.40;;;;;;5032980;28;20197;-71
2022/01/30 13:09:27;;;;;;;0.60;0.60;;;4.10;99.70;;;;;;5048436;28;20209;-71
2022/01/30 13:11:55;;;;;;;0.50;0.50;;;4.00;99.40;;;;;;5033061;28;20689;-70
2022/01/30 13:14:21;;;;;;;1.38;1.27;;;3.90;99.00;;;;;;5035595;28;20194;-70
2022/01/30 13:16:50;;;;;;;0.50;0.50;;;3.80;99.00;;;;;;5032404;28;20279;-71
2022/01/30 13:19:32;;;;;;;0.57;0.57;;;3.80;98.90;;;;;;5050259;28;20233;-69
2022/01/30 13:21:58;;;;;;;0.50;0.50;;;3.70;99.60;;;;;;5032254;28;20202;-70
2022/01/30 13:24:24;;;;;;;0.55;0.55;;;3.70;99.50;;;;;;5047638;28;20681;-70
2022/01/30 13:26:57;;;;;;;0.50;0.50;;;3.60;98.30;;;;;;5032563;28;20202;-69
2022/01/30 13:29:23;;;;;;;0.70;0.70;;;3.50;98.80;;;;;;5048967;28;20206;-70
2022/01/30 13:31:51;;;;;;;0.80;0.80;;;3.50;98.10;;;;;;5033688;28;20266;-70
2022/01/30 13:34:19;;;;;;;0.68;0.68;;;3.50;98.30;;;;;;5049729;28;20206;-70
2022/01/30 13:36:53;;;;;;;0.60;0.60;;;3.50;97.60;;;;;;5031849;28;20202;-69
2022/01/30 13:39:28;;;;;;;0.60;0.60;;;3.50;99.00;;;;;;5016582;28;20264;-70
2022/01/30 13:42:13;;;;;;;0.70;0.70;;;3.40;98.70;;;;;;5033942;28;20194;-70
2022/01/30 13:44:50;;;;;;;0.60;0.60;;;3.50;98.70;;;;;;5046611;28;20680;-69
2022/01/30 13:47:19;;;;;;;0.60;0.60;;;3.40;98.50;;;;;;5034108;28;20567;-69
2022/01/30 13:49:49;;;;;;;0.52;0.52;;;3.40;98.30;;;;;;5034676;28;20209;-70
2022/01/30 13:52:19;;;;;;;0.60;0.60;;;3.40;98.40;;;;;;5046327;28;20202;-69
2022/01/30 13:55:03;;;;;;;1.00;1.00;;;3.40;98.90;;;;;;5034499;28;20230;-69
2022/01/30 13:57:35;;;;;;;0.60;0.60;;;3.40;98.30;;;;;;5040223;28;20206;-69
2022/01/30 14:00:09;;;;;;;0.60;0.60;;;3.30;97.80;;;;;;5022057;28;20305;-69
2022/01/30 14:02:35;;;;;;;0.85;0.85;;;3.30;96.70;;;;;;5022625;28;20251;-70
2022/01/30 14:05:23;;;;;;;0.50;0.50;;;3.30;97.80;;;;;;5047338;28;20220;-69
2022/01/30 14:07:50;;;;;;;0.50;0.50;;;3.20;97.60;;;;;;5044507;28;20605;-70
2022/01/30 14:10:17;;;;;;;0.98;0.95;;;3.20;97.70;;;;;;5034937;28;20664;-69
2022/01/30 14:12:43;;;;;;;0.60;0.60;;;3.20;97.50;;;;;;5033296;28;20647;-70
2022/01/30 14:15:11;;;;;;;0.70;0.70;;;3.20;96.60;;;;;;5047463;28;20281;-69
2022/01/30 14:17:41;;;;;;;0.75;0.75;;;3.10;98.20;;;;;;5042462;28;20206;-69
2022/01/30 14:20:10;;;;;;;0.60;0.60;;;3.00;97.80;;;;;;5045978;28;20203;-69
2022/01/30 14:22:36;;;;;;;0.60;0.60;;;2.90;97.30;;;;;;5045801;28;20203;-70
2022/01/30 14:25:08;;;;;;;0.70;0.70;;;3.00;96.70;;;;;;5046892;28;20203;-71
2022/01/30 14:27:35;;;;;;;0.60;0.60;;;2.90;95.90;;;;;;5013802;28;20195;-69
2022/01/30 14:30:04;;;;;;;0.60;0.60;;;2.90;96.40;;;;;;5014890;28;20568;-70
2022/01/30 14:32:36;;;;;;;0.57;0.57;;;2.80;95.30;;;;;;5048207;28;20540;-69
2022/01/30 14:35:07;;;;;;;0.70;0.70;;;2.70;95.20;;;;;;5047755;28;20352;-70
2022/01/30 14:37:33;;;;;;;0.60;0.60;;;2.80;95.30;;;;;;5048087;28;20544;-73
2022/01/30 14:40:07;;;;;;;0.70;0.70;;;2.70;94.50;;;;;;5048510;28;20210;-71
2022/01/30 14:42:33;;;;;;;0.70;0.70;;;2.70;95.10;;;;;;5049466;28;20254;-70
2022/01/30 14:44:59;;;;;;;0.55;0.55;;;2.70;95.20;;;;;;5045591;28;20281;-69
2022/01/30 14:47:25;;;;;;;0.55;0.55;;;2.70;95.70;;;;;;5045533;28;20197;-70
2022/01/30 14:49:51;;;;;;;0.68;0.68;;;2.60;95.10;;;;;;5045726;28;20544;-70
2022/01/30 14:52:17;;;;;;;0.60;0.60;;;2.60;95.40;;;;;;5043532;28;20212;-70
2022/01/30 14:54:45;;;;;;;0.60;0.60;;;2.50;96.10;;;;;;5046508;28;20221;-69
2022/01/30 14:57:11;;;;;;;0.65;0.65;;;2.50;96.00;;;;;;5035573;28;20714;-70
2022/01/30 14:59:37;;;;;;;0.60;0.60;;;2.30;96.80;;;;;;5040564;28;20226;-70
2022/01/30 15:02:03;;;;;;;0.70;0.70;;;2.30;97.00;;;;;;5044245;28;20232;-70
2022/01/30 15:04:29;;;;;;;0.70;0.70;;;2.20;96.30;;;;;;5046699;28;20576;-70
2022/01/30 15:06:54;;;;;;;0.70;0.70;;;2.20;97.80;;;;;;5046742;28;20202;-70
2022/01/30 15:09:20;;;;;;;0.60;0.60;;;2.10;97.00;;;;;;5040760;28;20212;-70
2022/01/30 15:11:46;;;;;;;0.60;0.60;;;2.10;97.40;;;;;;5035012;28;20270;-70
2022/01/30 15:14:12;;;;;;;0.70;0.70;;;2.00;97.90;;;;;;5041259;28;20205;-69
2022/01/30 15:19:06;;;;;;;0.60;0.60;;;1.90;97.70;;;;;;5047583;28;20198;-69
2022/01/30 15:21:32;;;;;;;0.55;0.55;;;1.90;97.80;;;;;;5048196;28;20198;-69
2022/01/30 15:23:58;;;;;;;0.65;0.65;;;1.80;97.60;;;;;;5051322;28;20566;-70
2022/01/30 15:26:23;;;;;;;0.60;0.60;;;1.80;97.90;;;;;;5033024;28;20205;-69
2022/01/30 15:28:51;;;;;;;0.70;0.70;;;1.80;98.10;;;;;;5052673;28;20193;-70
2022/01/30 15:31:20;;;;;;;0.50;0.50;;;1.70;98.00;;;;;;5035040;28;20289;-69
2022/01/30 15:33:46;;;;;;;0.60;0.60;;;1.70;98.10;;;;;;5052011;28;20673;-71
2022/01/30 15:36:12;;;;;;;0.80;0.80;;;1.60;98.20;;;;;;5051237;28;20206;-70
2022/01/30 15:38:37;;;;;;;0.60;0.60;;;1.60;97.50;;;;;;5048969;28;20239;-69
2022/01/30 15:41:04;;;;;;;0.60;0.60;;;1.60;97.90;;;;;;5051327;28;20217;-71
2022/01/30 15:43:32;;;;;;;0.70;0.70;;;1.50;99.00;;;;;;5049353;28;20732;-69
2022/01/30 15:51:26;;;;;;;1.58;1.33;;;1.40;98.20;;;;;;5050694;28;20348;-70
2022/01/30 15:53:52;;;;;;;0.50;0.50;;;1.30;98.90;;;;;;5051173;28;20284;-69
2022/01/30 15:56:18;;;;;;;0.73;0.73;;;1.30;99.70;;;;;;5050846;28;20688;-69
2022/01/30 15:58:44;;;;;;;0.70;0.70;;;1.30;99.10;;;;;;5050943;28;20201;-70
2022/01/30 16:01:10;;;;;;;0.50;0.50;;;1.30;98.50;;;;;;5049833;28;20607;-70
2022/01/30 16:03:35;;;;;;;0.60;0.60;;;1.30;99.00;;;;;;5049734;28;20289;-69
2022/01/30 16:06:02;;;;;;;0.50;0.50;;;1.30;98.50;;;;;;5048136;28;20284;-69
2022/01/30 16:08:36;;;;;;;0.68;0.68;;;1.30;98.20;;;;;;5050734;28;20197;-70
2022/01/30 16:11:18;;;;;;;0.68;0.68;;;1.20;99.10;;;;;;5044629;28;20208;-70
2022/01/30 16:16:29;;;;;;;0.60;0.60;;;1.20;98.80;;;;;;5050915;28;20403;-70
2022/01/30 16:18:56;;;;;;;0.60;0.60;;;1.20;99.10;;;;;;5049662;28;20790;-70
2022/01/30 16:21:21;;;;;;;0.60;0.60;;;1.20;99.70;;;;;;5048026;28;20298;-70
2022/01/30 16:23:47;;;;;;;0.70;0.70;;;1.10;99.40;;;;;;5050620;28;20234;-70
2022/01/30 16:26:13;;;;;;;0.90;0.90;;;1.10;99.30;;;;;;5050583;28;20201;-70
2022/01/30 16:28:40;;;;;;;0.70;0.70;;;1.00;99.90;;;;;;5049362;28;20206;-70
2022/01/30 16:31:09;;;;;;;0.65;0.65;;;1.00;99.60;;;;;;5049537;28;20210;-71
2022/01/30 16:33:34;;;;;;;0.80;0.80;;;1.00;99.50;;;;;;5047470;28;20608;-70
2022/01/30 16:36:00;;;;;;;0.68;0.68;;;1.00;99.40;;;;;;5048974;28;20210;-69
2022/01/30 16:38:26;;;;;;;0.68;0.68;;;1.00;99.90;;;;;;5047122;28;20261;-70
2022/01/30 16:40:52;;;;;;;0.60;0.60;;;1.00;99.90;;;;;;5048307;28;20214;-70
2022/01/30 16:43:23;;;;;;;0.52;0.52;;;1.00;99.90;;;;;;5050589;28;20204;-70
2022/01/30 16:45:52;;;;;;;0.60;0.60;;;0.90;99.90;;;;;;5050677;28;20197;-70
2022/01/30 16:48:20;;;;;;;0.60;0.60;;;1.00;99.80;;;;;;5050078;28;20251;-70
2022/01/30 16:50:47;;;;;;;0.60;0.60;;;1.00;99.90;;;;;;5033924;28;20217;-70
2022/01/30 16:53:14;;;;;;;0.70;0.70;;;0.90;99.90;;;;;;5033173;28;20732;-68
2022/01/30 16:55:44;;;;;;;0.65;0.65;;;0.80;99.90;;;;;;5049688;28;20235;-68
2022/01/30 16:58:13;;;;;;;0.70;0.70;;;0.80;99.90;;;;;;5050423;28;20284;-68
2022/01/30 17:00:39;;;;;;;0.57;0.57;;;0.80;99.90;;;;;;5046078;28;20249;-68
2022/01/30 17:03:05;;;;;;;1.05;1.05;;;0.70;99.90;;;;;;5036151;28;20268;-69
2022/01/30 17:05:31;;;;;;;0.60;0.60;;;0.70;99.90;;;;;;5040749;28;20197;-69
2022/01/30 17:07:57;;;;;;;1.02;1.02;;;0.70;99.90;;;;;;5044625;28;20695;-70
2022/01/30 17:10:26;;;;;;;0.65;0.65;;;0.60;99.90;;;;;;5037028;28;20568;-68
2022/01/30 17:15:26;;;;;;;0.70;0.70;;;0.60;99.90;;;;;;5049582;28;20235;-68
2022/01/30 17:17:52;;;;;;;0.60;0.60;;;0.60;99.90;;;;;;5049566;28;20209;-68
2022/01/30 17:20:17;;;;;;;0.70;0.70;;;0.50;99.90;;;;;;5049500;28;20209;-68
2022/01/30 17:22:43;;;;;;;0.60;0.60;;;0.50;99.90;;;;;;5048448;28;20571;-67
2022/01/30 17:25:09;;;;;;;0.68;0.68;;;0.50;99.90;;;;;;5046078;28;20288;-68
2022/01/30 17:27:34;;;;;;;1.45;1.35;;;0.40;99.90;;;;;;5045920;28;20197;-68
2022/01/30 17:30:02;;;;;;;2.72;2.42;;;0.40;99.90;;;;;;5049370;28;20277;-68
2022/01/30 17:32:27;;;;;;;0.60;0.60;;;0.50;99.90;;;;;;5048183;28;20209;-69
2022/01/30 17:34:53;;;;;;;0.60;0.60;;;0.40;99.90;;;;;;5046117;28;20202;-69
2022/01/30 17:37:20;;;;;;;0.70;0.70;;;0.40;99.90;;;;;;5048006;28;20264;-69
2022/01/30 17:39:46;;;;;;;0.60;0.60;;;0.30;99.90;;;;;;5048232;28;20214;-68
2022/01/30 17:42:12;;;;;;;0.70;0.70;;;0.30;99.90;;;;;;5049781;28;20200;-68
2022/01/30 17:44:39;;;;;;;0.55;0.55;;;0.20;99.90;;;;;;5049504;28;20213;-68
2022/01/30 17:47:05;;;;;;;0.93;0.85;;;0.30;99.90;;;;;;5049777;28;20209;-71
2022/01/30 17:49:31;;;;;;;0.60;0.60;;;0.20;99.90;;;;;;5049473;28;20206;-68
2022/01/30 17:51:57;;;;;;;0.70;0.70;;;0.20;99.90;;;;;;5047680;28;20205;-68
2022/01/30 17:54:23;;;;;;;0.63;0.63;;;0.10;99.90;;;;;;5047578;28;20225;-68
2022/01/30 17:56:49;;;;;;;0.63;0.63;;;0.10;99.90;;;;;;5047817;28;20715;-69
2022/01/30 17:59:15;;;;;;;0.70;0.70;;;0.10;99.90;;;;;;5045922;28;20206;-68
2022/01/30 18:01:40;;;;;;;0.70;0.70;;;0.10;99.90;;;;;;5044034;28;20688;-69
2022/01/30 18:04:06;;;;;;;2.15;1.70;;;0.00;99.90;;;;;;5039995;28;20289;-69
2022/01/30 18:06:32;;;;;;;0.57;0.57;;;0.00;99.90;;;;;;5046125;28;20669;-69
2022/01/30 18:09:01;;;;;;;0.60;0.60;;;0.00;99.90;;;;;;5047224;28;20220;-68
2022/01/30 18:11:28;;;;;;;0.65;0.65;;;0.00;99.90;;;;;;5030976;28;20622;-69
2022/01/30 18:13:59;;;;;;;0.70;0.70;;;-0.10;99.90;;;;;;5039243;28;20642;-69
2022/01/30 18:16:25;;;;;;;0.70;0.70;;;-0.10;99.90;;;;;;5047094;28;20208;-70
2022/01/30 18:18:51;;;;;;;0.70;0.70;;;-0.10;99.90;;;;;;5048520;28;20201;-67
2022/01/30 18:21:17;;;;;;;0.80;0.80;;;-0.10;99.90;;;;;;5048553;28;20623;-68
2022/01/30 18:23:42;;;;;;;0.60;0.60;;;-0.20;99.90;;;;;;5046855;28;20215;-68
2022/01/30 18:26:08;;;;;;;0.60;0.60;;;-0.20;99.90;;;;;;5046068;28;20204;-68
2022/01/30 18:28:34;;;;;;;0.60;0.60;;;-0.10;99.90;;;;;;5047078;28;20198;-69
2022/01/30 18:31:00;;;;;;;0.75;0.75;;;-0.10;99.90;;;;;;5046251;28;20213;-69
2022/01/30 18:33:26;;;;;;;0.50;0.50;;;-0.10;99.90;;;;;;5012261;28;20725;-69
2022/01/30 18:36:01;;;;;;;2.63;2.42;;;-0.10;99.90;;;;;;5048560;28;20209;-73
2022/01/30 18:43:24;;;;;;;0.50;0.50;;;-0.20;99.90;;;;;;5048838;28;20292;-68
2022/01/30 18:45:50;;;;;;;0.70;0.70;;;-0.20;99.90;;;;;;5047288;28;20335;-68
2022/01/30 18:48:15;;;;;;;0.77;0.77;;;-0.20;99.90;;;;;;5044605;28;20717;-68
2022/01/30 18:50:49;;;;;;;0.80;0.80;;;-0.20;99.90;;;;;;5044330;28;20212;-69
2022/01/30 18:53:15;;;;;;;0.65;0.65;;;-0.30;99.90;;;;;;5047942;28;20205;-68
2022/01/30 18:55:41;;;;;;;0.60;0.60;;;-0.30;99.90;;;;;;5047052;28;20731;-69
2022/01/30 18:58:07;;;;;;;0.70;0.70;;;-0.30;99.90;;;;;;5044359;28;20209;-69
2022/01/30 19:00:34;;;;;;;0.60;0.60;;;-0.40;99.90;;;;;;5041833;28;20227;-72
2022/01/30 19:03:01;;;;;;;0.70;0.70;;;-0.40;99.90;;;;;;5046895;28;20209;-70
2022/01/30 19:05:27;;;;;;;0.73;0.73;;;-0.40;99.90;;;;;;5044280;28;20205;-69
2022/01/30 19:07:53;;;;;;;0.60;0.60;;;-0.40;99.90;;;;;;5047862;28;20213;-69
2022/01/30 19:10:18;;;;;;;0.65;0.65;;;-0.40;99.90;;;;;;5036672;28;20206;-69
2022/01/30 19:12:44;;;;;;;0.80;0.80;;;-0.40;99.90;;;;;;5035540;28;20201;-67
2022/01/30 19:15:10;;;;;;;0.70;0.70;;;-0.40;99.90;;;;;;5046433;28;20205;-69
2022/01/30 19:17:36;;;;;;;0.60;0.60;;;-0.40;99.90;;;;;;5046763;28;20197;-68
2022/01/30 19:20:02;;;;;;;0.70;0.70;;;-0.40;99.90;;;;;;5045272;28;20258;-68
2022/01/30 19:22:27;;;;;;;0.60;0.60;;;-0.50;99.90;;;;;;5047542;28;20198;-70
2022/01/30 19:24:54;;;;;;;0.60;0.60;;;-0.50;99.90;;;;;;5045371;28;20195;-68
2022/01/30 19:27:21;;;;;;;0.80;0.80;;;-0.50;99.90;;;;;;5047050;28;20610;-68
2022/01/30 19:29:47;;;;;;;0.70;0.70;;;-0.60;99.90;;;;;;5028978;28;20213;-68
2022/01/30 19:32:13;;;;;;;0.70;0.70;;;-0.60;99.90;;;;;;5047369;28;20667;-69
2022/01/30 19:34:39;;;;;;;0.70;0.70;;;-0.60;99.90;;;;;;5030158;28;20202;-68
2022/01/30 19:37:11;;;;;;;0.70;0.70;;;-0.60;99.90;;;;;;5047698;28;20198;-70
2022/01/30 19:39:40;;;;;;;0.65;0.65;;;-0.70;99.90;;;;;;5030984;28;20202;-68
2022/01/30 19:42:06;;;;;;;0.80;0.80;;;-0.70;99.90;;;;;;5063437;28;20198;-70
2022/01/30 19:44:32;;;;;;;0.80;0.80;;;-0.80;99.90;;;;;;5029599;28;20202;-69
2022/01/30 19:46:59;;;;;;;0.80;0.80;;;-0.80;99.90;;;;;;5048285;28;20719;-68
2022/01/30 19:49:25;;;;;;;0.70;0.70;;;-0.90;99.90;;;;;;5012385;28;20615;-68
2022/01/30 19:51:51;;;;;;;0.70;0.70;;;-1.00;99.90;;;;;;5035148;28;20233;-70
2022/01/30 19:54:17;;;;;;;0.80;0.80;;;-0.90;99.90;;;;;;5031025;28;20241;-69
2022/01/30 19:56:43;;;;;;;0.60;0.60;;;-0.90;99.90;;;;;;5029945;28;20296;-69
2022/01/30 19:59:10;;;;;;;0.80;0.80;;;-0.90;99.90;;;;;;5031063;28;20234;-69
2022/01/30 20:01:36;;;;;;;0.70;0.70;;;-1.00;99.90;;;;;;5044663;28;20252;-70
2022/01/30 20:04:01;;;;;;;0.77;0.77;;;-1.00;99.90;;;;;;5033662;28;20576;-71
2022/01/30 20:06:27;;;;;;;0.77;0.77;;;-1.00;99.90;;;;;;5044730;28;20227;-69
2022/01/30 20:08:53;;;;;;;0.70;0.70;;;-1.10;99.90;;;;;;5049158;28;20209;-68